Aventura, FL

3:06 AM EDT on October 21, 2014 (GMT -0400)
North Miami Beach FIU | Change Station
CLOSE
Current Station
Personal Weather Station
Location: North Miami Beach, FL
Elevation: 39 ft
Nearby Weather Stations

Elev 39 ft 25.91 °N, 80.14 °W | Updated 3 seconds ago

Overcast
Overcast
79.9 °F
Feels Like 84 °F
N
4.9
Wind Variable Wind from South
Gusts 9.0 mph

Today
High -- | Low -- °F
--% Chance of Precip.
Yesterday
High -- | Low -- °F
Precip. -- in
7:22 AM 6:47 PM
Waning Crescent, 7% visible
Pressure 29.93 in
Visibility 10.0 miles
Clouds Mostly Cloudy 6500 ft
Overcast 9500 ft
Heat Index 84 °F
Dew Point 74 °F
Humidity 82%
Rainfall 0.00 in
Snow Depth Not available.
UV 0 out of 12
Pollen 3.60 out of 12
Air Quality Not available.
Flu Activity Local Activity
METAR KOPF 210653Z AUTO 00000KT 10SM BKN065 OVC095 25/22 A2993 RMK AO2 SLP135 T02500222

More Conditions Fewer Conditions

Pressure 29.93 in
Visibility 10.0 miles
Clouds Mostly Cloudy 6500 ft
Overcast 9500 ft
Heat Index 84 °F
Dew Point 74 °F
Humidity 82%
Rainfall 0.00 in
Snow Depth Not available.
UV 0 out of 12
Pollen 3.60 out of 12
Air Quality Not available.
Flu Activity Local Activity
METAR KOPF 210653Z AUTO 00000KT 10SM BKN065 OVC095 25/22 A2993 RMK AO2 SLP135 T02500222

More Conditions Fewer Conditions

Nowcast | as of 2:23 am EDT on October 21, 2014

Showers and a couple of isolated thunderstorms will move across South Florida during the early morning hours. They are moving to the north and northeast at around 10 miles per hour. Rainfall accumulations will generally be around an inch or less. However, so localized areas could see up to an inch and a half of rain.

×

10-Day Weather Forecast

Almanac

Astronomy

Oct. 21, 2014 Rise Set
Actual Time 7:22 AM EDT 6:47 PM EDT
Civil Twilight 6:59 AM EDT 7:10 PM EDT
Nautical Twilight 6:32 AM EDT 7:37 PM EDT
Astronomical Twilight 6:05 AM EDT 8:04 PM EDT
Moon 5:18 AM EDT 5:30 PM EDT
Length of Visible Light 12h 11m
Length of Day
11h 24m
Tomorrow will be 1m 26s shorter.
Waning Crescent, 7% of the Moon is Illuminated
Today
Waning Crescent
Oct 23
New
Oct 30
First Quarter
Nov 6
Full
Nov 14
Last Quarter

Today's Extremes

State Highs State Lows

Community

WunderPhotos

Upload Photos

1,763,619 photos uploaded!

Nearby

Air Quality

  Air Quality AQ Index Pollutant
Yesterday Good
PM2.5
Yesterday Good
OZONE
Tuesday Good
OZONE
Tuesday Good
PM2.5

Snow Depth

Station Depth Elevation
No new snow has been reported.

Earthquake Activity

City Distance Mag. Time & Date
No recent earthquake activity has been reported nearby.
Minimum magnitude displayed is 2.5.

Coastal Water Temperatures

Place Temperature
Virginia Key, FL 81.0 °F

Nearby Weather Stations